sensor_id;sensor_type;location;lat;lon;timestamp;temperature;humidity
30594;DHT22;33199;47.590;8.300;2023-04-29T00:05:36;15.90;80.60
30594;DHT22;33199;47.590;8.300;2023-04-29T00:08:02;15.90;80.90
30594;DHT22;33199;47.590;8.300;2023-04-29T00:10:37;15.90;80.60
30594;DHT22;33199;47.590;8.300;2023-04-29T00:16:37;15.90;80.20
30594;DHT22;33199;47.590;8.300;2023-04-29T00:19:05;15.90;80.40
30594;DHT22;33199;47.590;8.300;2023-04-29T00:21:31;15.90;80.50
30594;DHT22;33199;47.590;8.300;2023-04-29T00:23:57;15.90;80.40
30594;DHT22;33199;47.590;8.300;2023-04-29T00:26:23;15.90;80.20
30594;DHT22;33199;47.590;8.300;2023-04-29T00:28:49;15.90;80.00
30594;DHT22;33199;47.590;8.300;2023-04-29T00:31:15;15.90;80.00
30594;DHT22;33199;47.590;8.300;2023-04-29T00:33:40;15.90;80.00
30594;DHT22;33199;47.590;8.300;2023-04-29T00:36:07;15.90;80.00
30594;DHT22;33199;47.590;8.300;2023-04-29T00:38:33;15.90;80.80
30594;DHT22;33199;47.590;8.300;2023-04-29T00:41:00;15.90;80.00
30594;DHT22;33199;47.590;8.300;2023-04-29T00:43:26;15.90;80.10
30594;DHT22;33199;47.590;8.300;2023-04-29T00:45:51;15.90;80.10
30594;DHT22;33199;47.590;8.300;2023-04-29T00:48:18;15.90;80.00
30594;DHT22;33199;47.590;8.300;2023-04-29T00:50:45;15.90;80.00
30594;DHT22;33199;47.590;8.300;2023-04-29T00:53:13;15.90;80.20
30594;DHT22;33199;47.590;8.300;2023-04-29T00:55:40;15.90;80.20
30594;DHT22;33199;47.590;8.300;2023-04-29T00:58:07;15.90;80.30
30594;DHT22;33199;47.590;8.300;2023-04-29T01:00:34;15.90;80.70
30594;DHT22;33199;47.590;8.300;2023-04-29T01:03:01;15.90;80.00
30594;DHT22;33199;47.590;8.300;2023-04-29T01:05:30;15.90;79.90
30594;DHT22;33199;47.590;8.300;2023-04-29T01:11:08;15.80;79.60
30594;DHT22;33199;47.590;8.300;2023-04-29T01:13:49;15.80;79.60
30594;DHT22;33199;47.590;8.300;2023-04-29T01:16:33;15.90;79.90
30594;DHT22;33199;47.590;8.300;2023-04-29T01:19:05;15.90;79.70
30594;DHT22;33199;47.590;8.300;2023-04-29T01:21:45;15.80;79.60
30594;DHT22;33199;47.590;8.300;2023-04-29T01:24:13;15.80;79.60
30594;DHT22;33199;47.590;8.300;2023-04-29T01:26:40;15.80;79.50
30594;DHT22;33199;47.590;8.300;2023-04-29T01:32:15;15.80;79.50
30594;DHT22;33199;47.590;8.300;2023-04-29T01:35:02;15.80;79.40
30594;DHT22;33199;47.590;8.300;2023-04-29T01:37:40;15.80;79.50
30594;DHT22;33199;47.590;8.300;2023-04-29T01:40:16;15.80;79.70
30594;DHT22;33199;47.590;8.300;2023-04-29T01:43:04;15.80;79.60
30594;DHT22;33199;47.590;8.300;2023-04-29T01:45:31;15.80;79.80
30594;DHT22;33199;47.590;8.300;2023-04-29T01:47:58;15.80;79.60
30594;DHT22;33199;47.590;8.300;2023-04-29T01:51:08;15.80;79.50
30594;DHT22;33199;47.590;8.300;2023-04-29T01:53:56;15.80;79.50
30594;DHT22;33199;47.590;8.300;2023-04-29T01:56:29;15.80;79.30
30594;DHT22;33199;47.590;8.300;2023-04-29T02:05:08;15.80;79.50
30594;DHT22;33199;47.590;8.300;2023-04-29T02:07:34;15.70;79.50
30594;DHT22;33199;47.590;8.300;2023-04-29T02:09:59;15.70;79.90
30594;DHT22;33199;47.590;8.300;2023-04-29T02:12:47;15.70;79.40
30594;DHT22;33199;47.590;8.300;2023-04-29T02:15:15;15.80;79.60
30594;DHT22;33199;47.590;8.300;2023-04-29T02:17:42;15.70;79.30
30594;DHT22;33199;47.590;8.300;2023-04-29T02:20:26;15.70;79.20
30594;DHT22;33199;47.590;8.300;2023-04-29T02:22:51;15.80;79.50
30594;DHT22;33199;47.590;8.300;2023-04-29T02:25:17;15.80;79.30
30594;DHT22;33199;47.590;8.300;2023-04-29T02:27:42;15.70;79.20
30594;DHT22;33199;47.590;8.300;2023-04-29T02:30:09;15.80;79.20
30594;DHT22;33199;47.590;8.300;2023-04-29T02:32:34;15.80;79.30
30594;DHT22;33199;47.590;8.300;2023-04-29T02:35:00;15.80;79.20
30594;DHT22;33199;47.590;8.300;2023-04-29T02:37:25;15.80;79.50
30594;DHT22;33199;47.590;8.300;2023-04-29T02:39:54;15.80;79.20
30594;DHT22;33199;47.590;8.300;2023-04-29T02:42:20;15.80;79.20
30594;DHT22;33199;47.590;8.300;2023-04-29T02:48:36;15.80;80.10
30594;DHT22;33199;47.590;8.300;2023-04-29T02:51:02;15.70;79.00
30594;DHT22;33199;47.590;8.300;2023-04-29T02:53:47;15.70;79.40
30594;DHT22;33199;47.590;8.300;2023-04-29T02:56:18;15.70;79.20
30594;DHT22;33199;47.590;8.300;2023-04-29T02:58:47;15.70;79.40
30594;DHT22;33199;47.590;8.300;2023-04-29T03:01:13;15.70;79.30
30594;DHT22;33199;47.590;8.300;2023-04-29T03:03:39;15.70;79.00
30594;DHT22;33199;47.590;8.300;2023-04-29T03:06:07;15.70;79.20
30594;DHT22;33199;47.590;8.300;2023-04-29T03:08:32;15.70;79.20
30594;DHT22;33199;47.590;8.300;2023-04-29T03:10:58;15.70;79.30
30594;DHT22;33199;47.590;8.300;2023-04-29T03:13:24;15.70;78.90
30594;DHT22;33199;47.590;8.300;2023-04-29T03:19:27;15.70;79.00
30594;DHT22;33199;47.590;8.300;2023-04-29T03:21:58;15.70;79.00
30594;DHT22;33199;47.590;8.300;2023-04-29T03:24:24;15.70;79.00
30594;DHT22;33199;47.590;8.300;2023-04-29T03:26:50;15.70;79.10
30594;DHT22;33199;47.590;8.300;2023-04-29T03:29:15;15.70;79.20
30594;DHT22;33199;47.590;8.300;2023-04-29T03:31:41;15.60;79.10
30594;DHT22;33199;47.590;8.300;2023-04-29T03:34:06;15.60;79.20
30594;DHT22;33199;47.590;8.300;2023-04-29T03:36:35;15.60;79.30
30594;DHT22;33199;47.590;8.300;2023-04-29T03:39:00;15.70;79.20
30594;DHT22;33199;47.590;8.300;2023-04-29T03:41:26;15.70;79.30
30594;DHT22;33199;47.590;8.300;2023-04-29T03:43:51;15.60;79.30
30594;DHT22;33199;47.590;8.300;2023-04-29T03:46:17;15.60;79.20
30594;DHT22;33199;47.590;8.300;2023-04-29T03:48:43;15.60;79.00
30594;DHT22;33199;47.590;8.300;2023-04-29T03:51:08;15.60;79.00
30594;DHT22;33199;47.590;8.300;2023-04-29T03:53:34;15.60;79.70
30594;DHT22;33199;47.590;8.300;2023-04-29T03:56:01;15.60;79.10
30594;DHT22;33199;47.590;8.300;2023-04-29T03:58:27;15.60;78.80
30594;DHT22;33199;47.590;8.300;2023-04-29T04:00:53;15.60;78.70
30594;DHT22;33199;47.590;8.300;2023-04-29T04:03:20;15.60;79.00
30594;DHT22;33199;47.590;8.300;2023-04-29T04:05:47;15.60;78.80
30594;DHT22;33199;47.590;8.300;2023-04-29T04:08:12;15.60;79.40
30594;DHT22;33199;47.590;8.300;2023-04-29T04:10:39;15.60;79.30
30594;DHT22;33199;47.590;8.300;2023-04-29T04:13:05;15.60;79.50
30594;DHT22;33199;47.590;8.300;2023-04-29T04:15:30;15.60;79.50
30594;DHT22;33199;47.590;8.300;2023-04-29T04:17:56;15.60;79.10
30594;DHT22;33199;47.590;8.300;2023-04-29T04:20:22;15.60;79.10
30594;DHT22;33199;47.590;8.300;2023-04-29T04:22:48;15.60;78.90
30594;DHT22;33199;47.590;8.300;2023-04-29T04:25:15;15.60;79.10
30594;DHT22;33199;47.590;8.300;2023-04-29T04:27:40;15.60;78.90
30594;DHT22;33199;47.590;8.300;2023-04-29T04:30:06;15.60;79.00
30594;DHT22;33199;47.590;8.300;2023-04-29T04:32:32;15.60;79.20
30594;DHT22;33199;47.590;8.300;2023-04-29T04:34:57;15.60;79.00
30594;DHT22;33199;47.590;8.300;2023-04-29T04:37:23;15.60;79.30
30594;DHT22;33199;47.590;8.300;2023-04-29T04:39:49;15.60;78.90
30594;DHT22;33199;47.590;8.300;2023-04-29T04:42:15;15.60;79.60
30594;DHT22;33199;47.590;8.300;2023-04-29T04:44:40;15.60;79.00
30594;DHT22;33199;47.590;8.300;2023-04-29T04:47:06;15.60;79.00
30594;DHT22;33199;47.590;8.300;2023-04-29T04:49:32;15.60;79.10
30594;DHT22;33199;47.590;8.300;2023-04-29T04:51:57;15.60;78.80
30594;DHT22;33199;47.590;8.300;2023-04-29T04:54:23;15.60;79.80
30594;DHT22;33199;47.590;8.300;2023-04-29T04:56:50;15.60;79.20
30594;DHT22;33199;47.590;8.300;2023-04-29T04:59:16;15.60;79.50
30594;DHT22;33199;47.590;8.300;2023-04-29T05:01:42;15.60;78.90
30594;DHT22;33199;47.590;8.300;2023-04-29T05:04:07;15.50;78.90
30594;DHT22;33199;47.590;8.300;2023-04-29T05:06:33;15.50;79.10
30594;DHT22;33199;47.590;8.300;2023-04-29T05:08:59;15.50;79.20
30594;DHT22;33199;47.590;8.300;2023-04-29T05:11:25;15.50;79.40
30594;DHT22;33199;47.590;8.300;2023-04-29T05:13:50;15.60;79.10
30594;DHT22;33199;47.590;8.300;2023-04-29T05:16:16;15.50;79.10
30594;DHT22;33199;47.590;8.300;2023-04-29T05:18:42;15.50;79.40
30594;DHT22;33199;47.590;8.300;2023-04-29T05:21:10;15.50;78.90
30594;DHT22;33199;47.590;8.300;2023-04-29T05:23:36;15.50;79.20
30594;DHT22;33199;47.590;8.300;2023-04-29T05:26:01;15.50;80.00
30594;DHT22;33199;47.590;8.300;2023-04-29T05:28:27;15.50;79.10
30594;DHT22;33199;47.590;8.300;2023-04-29T05:30:53;15.50;79.10
30594;DHT22;33199;47.590;8.300;2023-04-29T05:33:18;15.50;78.70
30594;DHT22;33199;47.590;8.300;2023-04-29T05:35:45;15.50;79.60
30594;DHT22;33199;47.590;8.300;2023-04-29T05:38:10;15.50;79.60
30594;DHT22;33199;47.590;8.300;2023-04-29T05:40:36;15.50;79.40
30594;DHT22;33199;47.590;8.300;2023-04-29T05:43:02;15.50;79.80
30594;DHT22;33199;47.590;8.300;2023-04-29T05:45:28;15.50;79.80
30594;DHT22;33199;47.590;8.300;2023-04-29T05:47:53;15.50;78.80
30594;DHT22;33199;47.590;8.300;2023-04-29T05:50:19;15.50;79.50
30594;DHT22;33199;47.590;8.300;2023-04-29T05:52:44;15.50;79.70
30594;DHT22;33199;47.590;8.300;2023-04-29T05:55:10;15.50;79.30
30594;DHT22;33199;47.590;8.300;2023-04-29T05:57:36;15.50;79.40
30594;DHT22;33199;47.590;8.300;2023-04-29T06:00:02;15.50;79.50
30594;DHT22;33199;47.590;8.300;2023-04-29T06:02:31;15.50;79.10
30594;DHT22;33199;47.590;8.300;2023-04-29T06:04:57;15.50;81.20
30594;DHT22;33199;47.590;8.300;2023-04-29T06:07:22;15.40;81.40
30594;DHT22;33199;47.590;8.300;2023-04-29T06:09:49;15.40;81.80
30594;DHT22;33199;47.590;8.300;2023-04-29T06:12:15;15.40;81.60
30594;DHT22;33199;47.590;8.300;2023-04-29T06:14:40;15.40;81.40
30594;DHT22;33199;47.590;8.300;2023-04-29T06:17:06;15.40;81.40
30594;DHT22;33199;47.590;8.300;2023-04-29T06:19:32;15.40;80.90
30594;DHT22;33199;47.590;8.300;2023-04-29T06:21:58;15.40;80.50
30594;DHT22;33199;47.590;8.300;2023-04-29T06:24:24;15.40;80.00
30594;DHT22;33199;47.590;8.300;2023-04-29T06:26:49;15.40;79.90
30594;DHT22;33199;47.590;8.300;2023-04-29T06:29:15;15.40;79.70
30594;DHT22;33199;47.590;8.300;2023-04-29T06:31:41;15.40;79.60
30594;DHT22;33199;47.590;8.300;2023-04-29T06:34:07;15.40;79.40
30594;DHT22;33199;47.590;8.300;2023-04-29T06:36:32;15.40;79.80
30594;DHT22;33199;47.590;8.300;2023-04-29T06:38:58;15.40;79.30
30594;DHT22;33199;47.590;8.300;2023-04-29T06:41:23;15.40;79.20
30594;DHT22;33199;47.590;8.300;2023-04-29T06:43:49;15.40;79.10
30594;DHT22;33199;47.590;8.300;2023-04-29T06:46:15;15.40;79.00
30594;DHT22;33199;47.590;8.300;2023-04-29T06:48:40;15.40;79.00
30594;DHT22;33199;47.590;8.300;2023-04-29T06:51:06;15.40;78.80
30594;DHT22;33199;47.590;8.300;2023-04-29T06:53:32;15.40;78.80
30594;DHT22;33199;47.590;8.300;2023-04-29T06:55:58;15.40;79.60
30594;DHT22;33199;47.590;8.300;2023-04-29T06:58:23;15.40;78.80
30594;DHT22;33199;47.590;8.300;2023-04-29T07:00:49;15.40;78.70
30594;DHT22;33199;47.590;8.300;2023-04-29T07:03:16;15.40;78.70
30594;DHT22;33199;47.590;8.300;2023-04-29T07:05:43;15.40;78.70
30594;DHT22;33199;47.590;8.300;2023-04-29T07:08:11;15.40;78.70
30594;DHT22;33199;47.590;8.300;2023-04-29T07:10:38;15.40;78.50
30594;DHT22;33199;47.590;8.300;2023-04-29T07:13:04;15.40;78.60
30594;DHT22;33199;47.590;8.300;2023-04-29T07:15:32;15.40;78.60
30594;DHT22;33199;47.590;8.300;2023-04-29T07:17:58;15.40;78.60
30594;DHT22;33199;47.590;8.300;2023-04-29T07:20:25;15.40;78.50
30594;DHT22;33199;47.590;8.300;2023-04-29T07:22:51;15.40;78.60
30594;DHT22;33199;47.590;8.300;2023-04-29T07:25:17;15.40;78.50
30594;DHT22;33199;47.590;8.300;2023-04-29T07:27:42;15.40;78.40
30594;DHT22;33199;47.590;8.300;2023-04-29T07:30:08;15.40;78.40
30594;DHT22;33199;47.590;8.300;2023-04-29T07:32:34;15.40;79.40
30594;DHT22;33199;47.590;8.300;2023-04-29T07:35:00;15.40;78.60
30594;DHT22;33199;47.590;8.300;2023-04-29T07:37:25;15.40;78.30
30594;DHT22;33199;47.590;8.300;2023-04-29T07:39:51;15.40;78.30
30594;DHT22;33199;47.590;8.300;2023-04-29T07:42:17;15.40;78.40
30594;DHT22;33199;47.590;8.300;2023-04-29T07:44:43;15.40;78.40
30594;DHT22;33199;47.590;8.300;2023-04-29T07:47:10;15.30;78.50
30594;DHT22;33199;47.590;8.300;2023-04-29T07:49:37;15.40;78.80
30594;DHT22;33199;47.590;8.300;2023-04-29T07:52:04;15.40;79.20
30594;DHT22;33199;47.590;8.300;2023-04-29T07:54:30;15.40;79.10
30594;DHT22;33199;47.590;8.300;2023-04-29T07:56:57;15.40;79.10
30594;DHT22;33199;47.590;8.300;2023-04-29T07:59:23;15.40;79.00
30594;DHT22;33199;47.590;8.300;2023-04-29T08:01:48;15.40;78.50
30594;DHT22;33199;47.590;8.300;2023-04-29T08:04:14;15.40;79.20
30594;DHT22;33199;47.590;8.300;2023-04-29T08:06:40;15.50;85.50
30594;DHT22;33199;47.590;8.300;2023-04-29T08:09:06;15.60;86.50
30594;DHT22;33199;47.590;8.300;2023-04-29T08:11:32;15.70;86.20
30594;DHT22;33199;47.590;8.300;2023-04-29T08:13:58;15.80;87.20
30594;DHT22;33199;47.590;8.300;2023-04-29T08:16:25;16.00;87.90
30594;DHT22;33199;47.590;8.300;2023-04-29T08:18:51;16.10;88.00
30594;DHT22;33199;47.590;8.300;2023-04-29T08:21:18;16.30;87.20
30594;DHT22;33199;47.590;8.300;2023-04-29T08:23:44;16.30;86.40
30594;DHT22;33199;47.590;8.300;2023-04-29T08:26:10;16.40;86.80
30594;DHT22;33199;47.590;8.300;2023-04-29T08:28:37;16.50;86.70
30594;DHT22;33199;47.590;8.300;2023-04-29T08:31:03;16.60;85.70
30594;DHT22;33199;47.590;8.300;2023-04-29T08:33:34;16.70;84.40
30594;DHT22;33199;47.590;8.300;2023-04-29T08:36:01;16.70;83.80
30594;DHT22;33199;47.590;8.300;2023-04-29T08:38:28;16.60;83.10
30594;DHT22;33199;47.590;8.300;2023-04-29T08:40:54;16.60;83.40
30594;DHT22;33199;47.590;8.300;2023-04-29T08:43:21;16.50;83.20
30594;DHT22;33199;47.590;8.300;2023-04-29T08:45:48;16.40;83.00
30594;DHT22;33199;47.590;8.300;2023-04-29T08:48:16;16.30;83.10
30594;DHT22;33199;47.590;8.300;2023-04-29T08:50:42;16.20;83.20
30594;DHT22;33199;47.590;8.300;2023-04-29T08:53:09;16.20;83.20
30594;DHT22;33199;47.590;8.300;2023-04-29T08:55:40;16.20;83.20
30594;DHT22;33199;47.590;8.300;2023-04-29T08:58:06;16.10;83.10
30594;DHT22;33199;47.590;8.300;2023-04-29T09:00:33;16.10;83.10
30594;DHT22;33199;47.590;8.300;2023-04-29T09:03:00;16.10;83.00
30594;DHT22;33199;47.590;8.300;2023-04-29T09:05:31;16.10;82.90
30594;DHT22;33199;47.590;8.300;2023-04-29T09:07:58;16.10;82.80
30594;DHT22;33199;47.590;8.300;2023-04-29T09:10:27;16.10;82.70
30594;DHT22;33199;47.590;8.300;2023-04-29T09:12:55;16.00;83.20
30594;DHT22;33199;47.590;8.300;2023-04-29T09:15:22;16.00;82.50
30594;DHT22;33199;47.590;8.300;2023-04-29T09:17:48;16.00;82.40
30594;DHT22;33199;47.590;8.300;2023-04-29T09:22:50;16.00;82.20
30594;DHT22;33199;47.590;8.300;2023-04-29T09:25:16;16.00;82.20
30594;DHT22;33199;47.590;8.300;2023-04-29T09:27:41;15.90;82.00
30594;DHT22;33199;47.590;8.300;2023-04-29T09:30:08;16.00;82.00
30594;DHT22;33199;47.590;8.300;2023-04-29T09:32:34;15.90;81.90
30594;DHT22;33199;47.590;8.300;2023-04-29T09:35:22;15.90;81.70
30594;DHT22;33199;47.590;8.300;2023-04-29T09:37:49;15.90;81.70
30594;DHT22;33199;47.590;8.300;2023-04-29T09:40:31;15.90;81.70
30594;DHT22;33199;47.590;8.300;2023-04-29T09:42:58;15.90;81.70
30594;DHT22;33199;47.590;8.300;2023-04-29T09:45:46;15.90;81.70
30594;DHT22;33199;47.590;8.300;2023-04-29T09:48:13;15.90;81.40
30594;DHT22;33199;47.590;8.300;2023-04-29T09:50:41;15.90;81.20
30594;DHT22;33199;47.590;8.300;2023-04-29T09:53:10;15.90;81.50
30594;DHT22;33199;47.590;8.300;2023-04-29T09:55:58;15.90;81.30
30594;DHT22;33199;47.590;8.300;2023-04-29T09:58:31;15.90;81.00
30594;DHT22;33199;47.590;8.300;2023-04-29T10:01:02;15.90;81.10
30594;DHT22;33199;47.590;8.300;2023-04-29T10:03:36;15.90;81.20
30594;DHT22;33199;47.590;8.300;2023-04-29T10:06:05;15.90;81.00
30594;DHT22;33199;47.590;8.300;2023-04-29T10:08:32;15.90;80.80
30594;DHT22;33199;47.590;8.300;2023-04-29T10:11:02;15.90;81.10
30594;DHT22;33199;47.590;8.300;2023-04-29T10:13:29;15.90;81.00
30594;DHT22;33199;47.590;8.300;2023-04-29T10:16:03;15.90;80.80
30594;DHT22;33199;47.590;8.300;2023-04-29T10:18:37;15.90;80.60
30594;DHT22;33199;47.590;8.300;2023-04-29T10:21:08;15.90;80.80
30594;DHT22;33199;47.590;8.300;2023-04-29T10:23:35;15.90;80.60
30594;DHT22;33199;47.590;8.300;2023-04-29T10:26:01;15.90;80.60
30594;DHT22;33199;47.590;8.300;2023-04-29T10:28:30;15.90;80.60
30594;DHT22;33199;47.590;8.300;2023-04-29T10:31:00;15.90;80.60
30594;DHT22;33199;47.590;8.300;2023-04-29T10:33:30;15.90;80.40
30594;DHT22;33199;47.590;8.300;2023-04-29T10:35:56;15.90;80.50
30594;DHT22;33199;47.590;8.300;2023-04-29T10:38:35;15.90;80.40
30594;DHT22;33199;47.590;8.300;2023-04-29T10:41:33;15.90;80.30
30594;DHT22;33199;47.590;8.300;2023-04-29T10:43:58;15.90;80.30
30594;DHT22;33199;47.590;8.300;2023-04-29T10:46:24;15.90;80.10
30594;DHT22;33199;47.590;8.300;2023-04-29T10:48:59;15.90;80.20
30594;DHT22;33199;47.590;8.300;2023-04-29T10:51:42;15.90;80.20
30594;DHT22;33199;47.590;8.300;2023-04-29T10:54:15;15.90;80.10
30594;DHT22;33199;47.590;8.300;2023-04-29T10:56:49;15.90;80.20
30594;DHT22;33199;47.590;8.300;2023-04-29T11:01:59;15.90;80.90
30594;DHT22;33199;47.590;8.300;2023-04-29T11:04:25;15.90;80.00
30594;DHT22;33199;47.590;8.300;2023-04-29T11:06:55;15.90;80.00
30594;DHT22;33199;47.590;8.300;2023-04-29T11:11:57;15.90;80.00
30594;DHT22;33199;47.590;8.300;2023-04-29T11:17:02;15.90;79.90
30594;DHT22;33199;47.590;8.300;2023-04-29T11:19:36;15.90;79.80
30594;DHT22;33199;47.590;8.300;2023-04-29T11:25:02;15.90;79.70
30594;DHT22;33199;47.590;8.300;2023-04-29T11:27:33;15.90;79.70
30594;DHT22;33199;47.590;8.300;2023-04-29T11:30:00;15.90;79.70
30594;DHT22;33199;47.590;8.300;2023-04-29T11:32:29;15.90;79.70
30594;DHT22;33199;47.590;8.300;2023-04-29T11:35:05;15.90;79.70
30594;DHT22;33199;47.590;8.300;2023-04-29T11:37:32;15.90;79.70
30594;DHT22;33199;47.590;8.300;2023-04-29T11:39:59;15.90;79.50
30594;DHT22;33199;47.590;8.300;2023-04-29T11:42:26;15.90;79.60
30594;DHT22;33199;47.590;8.300;2023-04-29T11:44:56;15.90;79.50
30594;DHT22;33199;47.590;8.300;2023-04-29T11:47:27;16.00;79.60
30594;DHT22;33199;47.590;8.300;2023-04-29T11:50:09;16.00;79.50
30594;DHT22;33199;47.590;8.300;2023-04-29T11:52:37;16.00;79.50
30594;DHT22;33199;47.590;8.300;2023-04-29T11:55:03;16.00;79.50
30594;DHT22;33199;47.590;8.300;2023-04-29T11:57:29;16.00;79.40
30594;DHT22;33199;47.590;8.300;2023-04-29T11:59:57;16.00;79.40
30594;DHT22;33199;47.590;8.300;2023-04-29T12:02:29;16.00;79.20
30594;DHT22;33199;47.590;8.300;2023-04-29T12:04:56;16.00;79.20
30594;DHT22;33199;47.590;8.300;2023-04-29T12:07:23;16.00;79.20
30594;DHT22;33199;47.590;8.300;2023-04-29T12:09:49;16.00;79.30
30594;DHT22;33199;47.590;8.300;2023-04-29T12:12:15;16.00;79.10
30594;DHT22;33199;47.590;8.300;2023-04-29T12:14:41;16.00;79.00
30594;DHT22;33199;47.590;8.300;2023-04-29T12:17:08;16.00;79.00
30594;DHT22;33199;47.590;8.300;2023-04-29T12:19:35;16.00;79.00
30594;DHT22;33199;47.590;8.300;2023-04-29T12:22:03;16.00;79.10
30594;DHT22;33199;47.590;8.300;2023-04-29T12:24:33;16.00;79.10
30594;DHT22;33199;47.590;8.300;2023-04-29T12:26:59;16.00;79.00
30594;DHT22;33199;47.590;8.300;2023-04-29T12:29:25;16.00;79.00
30594;DHT22;33199;47.590;8.300;2023-04-29T12:31:51;16.10;79.10
30594;DHT22;33199;47.590;8.300;2023-04-29T12:34:23;16.00;79.00
30594;DHT22;33199;47.590;8.300;2023-04-29T12:36:49;16.10;79.80
30594;DHT22;33199;47.590;8.300;2023-04-29T12:39:15;16.10;79.00
30594;DHT22;33199;47.590;8.300;2023-04-29T12:41:41;16.10;79.10
30594;DHT22;33199;47.590;8.300;2023-04-29T12:44:07;16.00;79.00
30594;DHT22;33199;47.590;8.300;2023-04-29T12:46:39;16.10;79.00
30594;DHT22;33199;47.590;8.300;2023-04-29T12:49:05;16.10;78.80
30594;DHT22;33199;47.590;8.300;2023-04-29T12:51:32;16.10;78.90
30594;DHT22;33199;47.590;8.300;2023-04-29T12:54:00;16.10;78.90
30594;DHT22;33199;47.590;8.300;2023-04-29T12:56:26;16.10;78.90
30594;DHT22;33199;47.590;8.300;2023-04-29T12:58:52;16.10;78.90
30594;DHT22;33199;47.590;8.300;2023-04-29T13:01:17;16.10;78.80
30594;DHT22;33199;47.590;8.300;2023-04-29T13:03:43;16.10;78.70
30594;DHT22;33199;47.590;8.300;2023-04-29T13:06:09;16.10;78.70
30594;DHT22;33199;47.590;8.300;2023-04-29T13:08:34;16.10;78.50
30594;DHT22;33199;47.590;8.300;2023-04-29T13:11:00;16.20;78.60
30594;DHT22;33199;47.590;8.300;2023-04-29T13:13:25;16.20;78.50
30594;DHT22;33199;47.590;8.300;2023-04-29T13:15:52;16.20;78.50
30594;DHT22;33199;47.590;8.300;2023-04-29T13:18:17;16.20;78.50
30594;DHT22;33199;47.590;8.300;2023-04-29T13:20:43;16.20;78.70
30594;DHT22;33199;47.590;8.300;2023-04-29T13:23:09;16.20;78.60
30594;DHT22;33199;47.590;8.300;2023-04-29T13:25:35;16.20;79.20
30594;DHT22;33199;47.590;8.300;2023-04-29T13:28:00;16.20;78.50
30594;DHT22;33199;47.590;8.300;2023-04-29T13:30:26;16.20;78.40
30594;DHT22;33199;47.590;8.300;2023-04-29T13:32:52;16.20;78.50
30594;DHT22;33199;47.590;8.300;2023-04-29T13:35:17;16.20;78.40
30594;DHT22;33199;47.590;8.300;2023-04-29T13:37:43;16.20;78.20
30594;DHT22;33199;47.590;8.300;2023-04-29T13:40:09;16.20;78.20
30594;DHT22;33199;47.590;8.300;2023-04-29T13:42:35;16.20;78.20
30594;DHT22;33199;47.590;8.300;2023-04-29T13:45:01;16.20;78.20
30594;DHT22;33199;47.590;8.300;2023-04-29T13:47:28;16.30;78.40
30594;DHT22;33199;47.590;8.300;2023-04-29T13:49:53;16.30;78.30
30594;DHT22;33199;47.590;8.300;2023-04-29T13:52:19;16.30;78.20
30594;DHT22;33199;47.590;8.300;2023-04-29T13:54:45;16.30;78.20
30594;DHT22;33199;47.590;8.300;2023-04-29T13:57:11;16.30;78.00
30594;DHT22;33199;47.590;8.300;2023-04-29T13:59:36;16.30;78.00
30594;DHT22;33199;47.590;8.300;2023-04-29T14:02:02;16.30;77.80
30594;DHT22;33199;47.590;8.300;2023-04-29T14:04:28;16.30;77.90
30594;DHT22;33199;47.590;8.300;2023-04-29T14:06:55;16.30;78.10
30594;DHT22;33199;47.590;8.300;2023-04-29T14:09:21;16.30;77.60
30594;DHT22;33199;47.590;8.300;2023-04-29T14:11:48;16.30;77.80
30594;DHT22;33199;47.590;8.300;2023-04-29T14:14:15;16.30;77.70
30594;DHT22;33199;47.590;8.300;2023-04-29T14:16:41;16.30;77.60
30594;DHT22;33199;47.590;8.300;2023-04-29T14:19:06;16.30;77.40
30594;DHT22;33199;47.590;8.300;2023-04-29T14:21:33;16.30;77.50
30594;DHT22;33199;47.590;8.300;2023-04-29T14:23:59;16.40;78.00
30594;DHT22;33199;47.590;8.300;2023-04-29T14:26:25;16.40;77.50
30594;DHT22;33199;47.590;8.300;2023-04-29T14:28:51;16.40;77.50
30594;DHT22;33199;47.590;8.300;2023-04-29T14:31:34;16.30;77.50
30594;DHT22;33199;47.590;8.300;2023-04-29T14:34:02;16.30;77.50
30594;DHT22;33199;47.590;8.300;2023-04-29T14:36:28;16.40;77.50
30594;DHT22;33199;47.590;8.300;2023-04-29T14:38:53;16.40;77.40
30594;DHT22;33199;47.590;8.300;2023-04-29T14:41:19;16.40;77.20
30594;DHT22;33199;47.590;8.300;2023-04-29T14:43:48;16.40;77.20
30594;DHT22;33199;47.590;8.300;2023-04-29T14:46:13;16.40;77.20
30594;DHT22;33199;47.590;8.300;2023-04-29T14:48:39;16.40;76.90
30594;DHT22;33199;47.590;8.300;2023-04-29T14:51:05;16.40;77.10
30594;DHT22;33199;47.590;8.300;2023-04-29T14:53:30;16.40;77.30
30594;DHT22;33199;47.590;8.300;2023-04-29T14:55:56;16.40;77.10
30594;DHT22;33199;47.590;8.300;2023-04-29T14:58:22;16.40;77.00
30594;DHT22;33199;47.590;8.300;2023-04-29T15:00:48;16.40;76.90
30594;DHT22;33199;47.590;8.300;2023-04-29T15:03:15;16.40;76.90
30594;DHT22;33199;47.590;8.300;2023-04-29T15:05:41;16.40;76.80
30594;DHT22;33199;47.590;8.300;2023-04-29T15:08:07;16.40;77.00
30594;DHT22;33199;47.590;8.300;2023-04-29T15:10:33;16.40;76.70
30594;DHT22;33199;47.590;8.300;2023-04-29T15:12:58;16.40;76.50
30594;DHT22;33199;47.590;8.300;2023-04-29T15:15:25;16.50;76.70
30594;DHT22;33199;47.590;8.300;2023-04-29T15:17:50;16.50;77.10
30594;DHT22;33199;47.590;8.300;2023-04-29T15:20:16;16.40;76.60
30594;DHT22;33199;47.590;8.300;2023-04-29T15:22:42;16.40;76.70
30594;DHT22;33199;47.590;8.300;2023-04-29T15:25:08;16.40;77.10
30594;DHT22;33199;47.590;8.300;2023-04-29T15:27:34;16.40;76.80
30594;DHT22;33199;47.590;8.300;2023-04-29T15:30:00;16.40;77.00
30594;DHT22;33199;47.590;8.300;2023-04-29T15:32:26;16.40;76.90
30594;DHT22;33199;47.590;8.300;2023-04-29T15:34:58;16.40;77.00
30594;DHT22;33199;47.590;8.300;2023-04-29T15:37:25;16.40;77.10
30594;DHT22;33199;47.590;8.300;2023-04-29T15:39:51;16.40;77.20
30594;DHT22;33199;47.590;8.300;2023-04-29T15:42:17;16.40;77.20
30594;DHT22;33199;47.590;8.300;2023-04-29T15:44:43;16.40;77.20
30594;DHT22;33199;47.590;8.300;2023-04-29T15:47:08;16.50;77.10
30594;DHT22;33199;47.590;8.300;2023-04-29T15:49:34;16.40;77.00
30594;DHT22;33199;47.590;8.300;2023-04-29T15:51:59;16.50;77.00
30594;DHT22;33199;47.590;8.300;2023-04-29T15:54:25;16.50;77.10
30594;DHT22;33199;47.590;8.300;2023-04-29T15:56:51;16.50;76.90
30594;DHT22;33199;47.590;8.300;2023-04-29T15:59:16;16.50;77.10
30594;DHT22;33199;47.590;8.300;2023-04-29T16:01:42;16.50;77.10
30594;DHT22;33199;47.590;8.300;2023-04-29T16:04:08;16.50;77.20
30594;DHT22;33199;47.590;8.300;2023-04-29T16:06:33;16.50;77.20
30594;DHT22;33199;47.590;8.300;2023-04-29T16:08:59;16.50;77.20
30594;DHT22;33199;47.590;8.300;2023-04-29T16:11:25;16.40;77.20
30594;DHT22;33199;47.590;8.300;2023-04-29T16:13:52;16.50;77.30